Time;durP1;ratioP1;P1;durP2;ratioP2;P2;SDS_P1;SDS_P2;PMS_P1;PMS_P2;Temp;Humidity;BMP_temperature;BMP_pressure;BME280_temperature;BME280_humidity;BME280_pressure;Samples;Min_cycle;Max_cycle;Signal;HPM_P1;HPM_P2
2022/12/18 00:01:45;;;;;;;79.63;25.20;;;-2.70;66.70;;;;;;4720733;29;115064;-81
2022/12/18 00:04:21;;;;;;;87.97;25.20;;;-2.70;66.90;;;;;;4720744;29;114809;-80
2022/12/18 00:06:49;;;;;;;81.38;25.45;;;-2.70;66.90;;;;;;4720317;29;114587;-80
2022/12/18 00:09:17;;;;;;;69.68;24.08;;;-2.70;66.70;;;;;;4734992;29;114853;-80
2022/12/18 00:11:44;;;;;;;77.35;24.92;;;-2.70;66.50;;;;;;4733495;29;115689;-81
2022/12/18 00:14:12;;;;;;;82.28;23.85;;;-2.70;66.50;;;;;;4719500;29;115162;-81
2022/12/18 00:16:39;;;;;;;78.10;24.10;;;-2.70;66.40;;;;;;4704423;29;114627;-79
2022/12/18 00:19:10;;;;;;;76.45;23.20;;;-2.70;66.40;;;;;;4734373;29;115682;-80
2022/12/18 00:21:40;;;;;;;68.03;21.42;;;-2.70;66.70;;;;;;4732742;29;115549;-80
2022/12/18 00:24:11;;;;;;;71.18;22.25;;;-2.70;66.70;;;;;;4703301;29;116083;-80
2022/12/18 00:26:39;;;;;;;68.57;20.73;;;-2.70;66.70;;;;;;4705033;29;114613;-80
2022/12/18 00:29:13;;;;;;;75.20;22.45;;;-2.70;66.80;;;;;;4690848;29;114675;-81
2022/12/18 00:31:43;;;;;;;70.95;23.45;;;-2.70;66.50;;;;;;4721216;29;115097;-81
2022/12/18 00:34:14;;;;;;;74.03;24.60;;;-2.70;66.40;;;;;;4721184;29;115024;-80
2022/12/18 00:36:41;;;;;;;71.18;22.30;;;-2.70;66.40;;;;;;4720194;29;118253;-80
2022/12/18 00:39:10;;;;;;;60.92;22.45;;;-2.80;66.30;;;;;;4720056;29;114619;-80
2022/12/18 00:44:25;;;;;;;81.13;23.40;;;-2.80;66.20;;;;;;4730706;29;114768;-80
2022/12/18 00:46:52;;;;;;;75.88;23.35;;;-2.80;66.20;;;;;;4703519;29;116259;-80
2022/12/18 00:49:19;;;;;;;72.43;21.67;;;-2.80;66.20;;;;;;4719801;29;114859;-81
2022/12/18 00:51:47;;;;;;;68.38;21.85;;;-2.80;66.20;;;;;;4717637;29;115274;-81
2022/12/18 00:54:14;;;;;;;67.60;20.85;;;-2.80;66.40;;;;;;4733691;29;114895;-81
2022/12/18 00:56:42;;;;;;;60.58;19.60;;;-2.80;66.40;;;;;;4704904;29;114538;-81
2022/12/18 00:59:16;;;;;;;46.50;16.20;;;-2.80;66.40;;;;;;4720748;29;117109;-81
2022/12/18 01:01:47;;;;;;;60.15;19.67;;;-2.80;66.40;;;;;;4733691;29;115466;-81
2022/12/18 01:04:14;;;;;;;57.03;19.13;;;-2.80;66.40;;;;;;4719017;29;114929;-81
2022/12/18 01:06:45;;;;;;;60.38;20.50;;;-2.80;66.50;;;;;;4720816;29;114611;-81
2022/12/18 01:09:15;;;;;;;66.15;20.92;;;-2.80;66.30;;;;;;4720521;29;114755;-81
2022/12/18 01:11:42;;;;;;;56.58;18.60;;;-2.80;66.20;;;;;;4718317;29;115342;-81
2022/12/18 01:14:10;;;;;;;54.13;19.75;;;-2.80;66.20;;;;;;4703777;29;114771;-81
2022/12/18 01:16:37;;;;;;;54.70;16.90;;;-2.90;66.10;;;;;;4720762;29;114868;-81
2022/12/18 01:19:05;;;;;;;53.20;18.45;;;-2.80;66.10;;;;;;4720361;29;114719;-80
2022/12/18 01:21:32;;;;;;;50.20;17.58;;;-2.80;66.20;;;;;;4722803;29;115193;-81
2022/12/18 01:24:03;;;;;;;55.50;18.15;;;-2.90;66.10;;;;;;4723956;29;114618;-81
2022/12/18 01:26:31;;;;;;;55.38;18.65;;;-2.90;66.10;;;;;;4735499;29;114828;-81
2022/12/18 01:28:58;;;;;;;52.70;19.17;;;-2.90;66.10;;;;;;4723998;29;114676;-81
2022/12/18 01:31:28;;;;;;;54.45;16.70;;;-3.00;66.10;;;;;;4723862;29;115503;-81
2022/12/18 01:33:55;;;;;;;51.15;16.98;;;-2.90;66.10;;;;;;4736876;29;114753;-81
2022/12/18 01:36:28;;;;;;;51.55;17.38;;;-3.00;66.10;;;;;;4724462;29;114990;-81
2022/12/18 01:38:55;;;;;;;50.83;17.80;;;-2.90;66.30;;;;;;4720489;29;115116;-81
2022/12/18 01:41:26;;;;;;;60.83;19.33;;;-2.90;66.30;;;;;;4737299;29;115090;-81
2022/12/18 01:43:59;;;;;;;54.78;17.50;;;-2.90;66.30;;;;;;4722817;29;114763;-81
2022/12/18 01:46:27;;;;;;;47.80;15.93;;;-2.90;66.20;;;;;;4705712;29;114418;-80
2022/12/18 01:49:07;;;;;;;52.60;18.02;;;-3.00;66.20;;;;;;4693883;29;114675;-81
2022/12/18 01:51:35;;;;;;;48.65;18.55;;;-2.90;66.20;;;;;;4723938;29;115369;-80
2022/12/18 01:54:02;;;;;;;52.30;16.70;;;-2.90;66.20;;;;;;4723011;29;114752;-80
2022/12/18 01:56:29;;;;;;;44.40;17.52;;;-2.80;66.20;;;;;;4738332;29;114775;-81
2022/12/18 01:59:03;;;;;;;60.63;18.00;;;-2.90;66.30;;;;;;4693930;29;115029;-81
2022/12/18 02:01:30;;;;;;;51.42;16.02;;;-2.90;66.30;;;;;;4722316;29;115449;-81
2022/12/18 02:04:30;;;;;;;53.15;16.20;;;-2.80;66.20;;;;;;4736560;29;116375;-82
2022/12/18 02:07:03;;;;;;;44.53;15.65;;;-2.90;66.30;;;;;;4715852;29;114455;-81
2022/12/18 02:09:35;;;;;;;46.95;15.55;;;-2.90;66.40;;;;;;4721804;29;114508;-80
2022/12/18 02:12:11;;;;;;;42.13;14.48;;;-2.90;66.30;;;;;;4718695;29;115200;-80
2022/12/18 02:15:14;;;;;;;50.53;15.93;;;-2.90;66.20;;;;;;4720671;29;114760;-81
2022/12/18 02:18:20;;;;;;;49.38;15.63;;;-2.90;66.10;;;;;;4710770;29;114536;-81
2022/12/18 02:21:15;;;;;;;41.70;14.27;;;-3.00;66.20;;;;;;4717125;29;114741;-81
2022/12/18 02:24:20;;;;;;;35.00;13.02;;;-3.00;66.40;;;;;;4725389;29;115340;-80
2022/12/18 02:26:53;;;;;;;44.78;14.25;;;-3.10;66.30;;;;;;4718675;29;114928;-81
2022/12/18 02:29:36;;;;;;;44.42;15.02;;;-3.10;66.20;;;;;;4707619;29;114630;-81
2022/12/18 02:32:07;;;;;;;53.45;15.63;;;-3.10;66.10;;;;;;4690446;29;114875;-81
2022/12/18 02:34:37;;;;;;;49.55;15.55;;;-3.10;66.10;;;;;;4692819;29;115295;-80
2022/12/18 02:37:09;;;;;;;40.45;15.30;;;-3.20;66.00;;;;;;4721072;29;114996;-80
2022/12/18 02:39:38;;;;;;;42.85;14.57;;;-3.30;66.20;;;;;;4708183;29;114637;-81
2022/12/18 02:42:09;;;;;;;49.33;15.23;;;-3.40;66.40;;;;;;4704863;29;114610;-81
2022/12/18 02:44:48;;;;;;;46.03;15.20;;;-3.40;66.60;;;;;;4704372;29;115260;-81
2022/12/18 02:47:24;;;;;;;50.22;16.40;;;-3.30;66.60;;;;;;4692978;29;114657;-81
2022/12/18 02:49:57;;;;;;;47.55;14.75;;;-3.20;66.50;;;;;;4722977;29;114542;-80
2022/12/18 02:52:54;;;;;;;60.58;17.50;;;-3.20;66.50;;;;;;4735552;29;115007;-81
2022/12/18 02:55:45;;;;;;;39.65;13.45;;;-3.10;66.50;;;;;;4705824;29;116813;-81
2022/12/18 02:58:34;;;;;;;52.97;16.08;;;-3.10;66.40;;;;;;4721726;29;117043;-81
2022/12/18 03:01:36;;;;;;;45.63;15.48;;;-3.10;66.40;;;;;;4707993;29;114951;-81
2022/12/18 03:04:09;;;;;;;48.10;16.83;;;-3.10;66.30;;;;;;4704699;29;114633;-81
2022/12/18 03:06:43;;;;;;;50.75;16.17;;;-3.00;66.30;;;;;;4731825;29;115836;-81
2022/12/18 03:09:16;;;;;;;46.08;15.18;;;-3.00;66.20;;;;;;4706331;29;114821;-81
2022/12/18 03:14:39;;;;;;;47.25;15.75;;;-2.90;66.20;;;;;;4704436;29;114944;-81
2022/12/18 03:17:13;;;;;;;52.97;16.40;;;-3.00;66.20;;;;;;4704885;29;116095;-81
2022/12/18 03:19:45;;;;;;;43.72;15.45;;;-2.90;66.20;;;;;;4706671;29;114706;-80
2022/12/18 03:22:14;;;;;;;45.80;17.40;;;-2.90;66.20;;;;;;4721425;29;114645;-81
2022/12/18 03:24:46;;;;;;;49.55;15.50;;;-2.90;66.30;;;;;;4719221;29;114461;-80
2022/12/18 03:27:17;;;;;;;45.42;14.70;;;-2.90;66.40;;;;;;4706115;29;115227;-81
2022/12/18 03:29:51;;;;;;;47.38;15.57;;;-2.90;66.40;;;;;;4674988;29;114644;-82
2022/12/18 03:32:31;;;;;;;40.67;13.55;;;-2.80;66.50;;;;;;4676869;29;114658;-80
2022/12/18 03:35:02;;;;;;;50.70;18.20;;;-2.80;66.60;;;;;;4693521;29;114618;-80
2022/12/18 03:37:32;;;;;;;43.67;15.07;;;-2.80;66.50;;;;;;4703544;29;115522;-80
2022/12/18 03:40:00;;;;;;;44.08;15.63;;;-2.80;66.30;;;;;;4707048;29;115094;-80
2022/12/18 03:42:36;;;;;;;52.08;17.00;;;-2.80;66.20;;;;;;4734099;29;114673;-80
2022/12/18 03:45:25;;;;;;;48.83;16.75;;;-2.80;66.20;;;;;;4708959;29;114637;-80
2022/12/18 03:48:01;;;;;;;42.20;14.35;;;-2.90;66.20;;;;;;4706478;29;116399;-79
2022/12/18 03:51:00;;;;;;;49.03;16.20;;;-2.80;66.20;;;;;;4736416;29;114701;-79
2022/12/18 03:53:42;;;;;;;42.97;15.95;;;-2.80;66.10;;;;;;4721842;29;114595;-79
2022/12/18 03:56:10;;;;;;;52.92;16.45;;;-2.80;66.10;;;;;;4707671;29;114606;-79
2022/12/18 03:58:40;;;;;;;53.00;17.23;;;-2.90;66.20;;;;;;4689643;29;115696;-79
2022/12/18 04:01:17;;;;;;;47.22;17.45;;;-2.80;66.20;;;;;;4718572;29;114758;-79
2022/12/18 04:03:46;;;;;;;44.45;16.33;;;-2.90;66.10;;;;;;4704213;29;114542;-78
2022/12/18 04:06:13;;;;;;;51.50;18.23;;;-2.90;66.00;;;;;;4707183;29;114669;-79
2022/12/18 04:08:42;;;;;;;53.05;17.50;;;-2.90;66.00;;;;;;4705586;29;115351;-79
2022/12/18 04:11:12;;;;;;;47.33;15.95;;;-3.00;66.10;;;;;;4703058;29;114831;-80
2022/12/18 04:13:39;;;;;;;51.17;17.63;;;-2.90;66.20;;;;;;4721301;29;114620;-80
2022/12/18 04:16:13;;;;;;;47.40;16.23;;;-3.00;66.20;;;;;;4707875;29;114662;-80
2022/12/18 04:18:43;;;;;;;45.10;15.43;;;-2.90;66.30;;;;;;4720316;29;115826;-80
2022/12/18 04:21:10;;;;;;;53.22;17.65;;;-2.90;66.30;;;;;;4705354;29;117662;-80
2022/12/18 04:23:38;;;;;;;46.17;16.25;;;-2.80;66.30;;;;;;4721908;29;114554;-81
2022/12/18 04:26:06;;;;;;;38.15;12.40;;;-2.90;66.20;;;;;;4692451;29;119435;-80
2022/12/18 04:28:42;;;;;;;50.53;15.52;;;-2.90;66.30;;;;;;4720792;29;115151;-80
2022/12/18 04:31:10;;;;;;;45.33;16.83;;;-2.80;66.40;;;;;;4705787;29;116012;-79
2022/12/18 04:33:37;;;;;;;45.47;16.25;;;-2.80;66.30;;;;;;4706823;29;114485;-80
2022/12/18 04:36:06;;;;;;;42.05;15.70;;;-2.80;66.20;;;;;;4721340;29;114633;-79
2022/12/18 04:38:34;;;;;;;44.10;16.42;;;-2.80;66.20;;;;;;4705312;29;115591;-79
2022/12/18 04:41:07;;;;;;;46.10;14.70;;;-2.80;66.20;;;;;;4704895;29;117884;-80
2022/12/18 04:43:34;;;;;;;51.53;16.35;;;-2.80;66.10;;;;;;4721415;29;114684;-79
2022/12/18 04:46:04;;;;;;;56.03;15.98;;;-2.80;66.10;;;;;;4720439;29;116347;-79
2022/12/18 04:48:32;;;;;;;45.40;16.08;;;-2.80;66.00;;;;;;4721366;29;115487;-81
2022/12/18 04:50:59;;;;;;;48.17;15.85;;;-2.80;65.90;;;;;;4720187;29;114662;-79
2022/12/18 04:53:26;;;;;;;44.00;15.65;;;-2.80;66.00;;;;;;4721180;29;114823;-79
2022/12/18 04:56:11;;;;;;;46.00;16.00;;;-2.80;66.10;;;;;;4706600;29;114498;-80
2022/12/18 04:58:39;;;;;;;45.67;16.45;;;-2.80;66.00;;;;;;4705645;29;115475;-80
2022/12/18 05:01:07;;;;;;;44.05;15.30;;;-2.80;66.10;;;;;;4719838;29;115054;-80
2022/12/18 05:03:35;;;;;;;42.72;15.13;;;-2.80;66.10;;;;;;4720539;29;114643;-81
2022/12/18 05:06:05;;;;;;;48.25;16.52;;;-2.80;66.20;;;;;;4706342;29;114570;-80
2022/12/18 05:08:33;;;;;;;47.33;15.43;;;-2.80;66.10;;;;;;4719823;29;118868;-81
2022/12/18 05:11:12;;;;;;;49.92;17.05;;;-2.90;66.10;;;;;;4734780;29;114952;-81
2022/12/18 05:13:39;;;;;;;47.53;15.98;;;-2.90;66.20;;;;;;4720831;29;114506;-80
2022/12/18 05:16:07;;;;;;;49.25;14.80;;;-2.90;66.20;;;;;;4720998;29;114680;-81
2022/12/18 05:18:34;;;;;;;50.47;15.82;;;-2.90;65.80;;;;;;4719813;29;115363;-80
2022/12/18 05:21:02;;;;;;;47.00;14.85;;;-3.10;65.80;;;;;;4705168;29;114832;-80
2022/12/18 05:23:29;;;;;;;45.78;15.50;;;-3.20;66.20;;;;;;4721597;29;114376;-80
2022/12/18 05:25:59;;;;;;;48.13;14.60;;;-3.20;66.10;;;;;;4735827;29;114735;-80
2022/12/18 05:28:30;;;;;;;50.85;16.95;;;-3.20;66.30;;;;;;4719551;29;115228;-80
2022/12/18 05:31:00;;;;;;;48.60;15.65;;;-3.20;66.30;;;;;;4734849;29;114828;-81
2022/12/18 05:33:31;;;;;;;48.45;15.68;;;-3.10;66.30;;;;;;4721759;29;114608;-81
2022/12/18 05:36:01;;;;;;;43.83;14.23;;;-3.10;66.10;;;;;;4721422;29;114646;-81
2022/12/18 05:38:29;;;;;;;51.80;15.27;;;-3.20;65.60;;;;;;4705337;29;115278;-81
2022/12/18 05:40:57;;;;;;;43.90;15.15;;;-3.40;65.70;;;;;;4704994;29;115201;-81
2022/12/18 05:43:25;;;;;;;41.92;13.35;;;-3.50;66.20;;;;;;4722189;29;114692;-81
2022/12/18 05:45:52;;;;;;;44.25;13.93;;;-3.50;66.50;;;;;;4691682;29;114839;-80
2022/12/18 05:48:20;;;;;;;46.58;14.52;;;-3.50;66.40;;;;;;4719752;29;117217;-80
2022/12/18 05:50:48;;;;;;;40.38;12.73;;;-3.60;66.10;;;;;;4716989;29;117537;-80
2022/12/18 05:53:17;;;;;;;39.60;13.73;;;-3.80;66.20;;;;;;4719017;29;114794;-80
2022/12/18 05:55:45;;;;;;;42.03;11.27;;;-4.00;66.30;;;;;;4722051;29;114546;-80
2022/12/18 05:58:12;;;;;;;36.05;13.90;;;-4.00;66.60;;;;;;4719806;29;115500;-81
2022/12/18 06:00:42;;;;;;;41.65;13.65;;;-4.10;66.80;;;;;;4703970;29;114784;-80
2022/12/18 06:03:10;;;;;;;37.63;12.88;;;-4.10;66.70;;;;;;4716929;29;114454;-80
2022/12/18 06:05:42;;;;;;;40.75;12.90;;;-4.30;66.90;;;;;;4719848;29;114504;-80
2022/12/18 06:08:10;;;;;;;31.50;11.30;;;-4.20;67.20;;;;;;4721970;29;115408;-80
2022/12/18 06:10:37;;;;;;;34.35;10.05;;;-4.20;66.90;;;;;;4722721;29;115115;-80
2022/12/18 06:13:05;;;;;;;22.25;7.30;;;-4.30;66.70;;;;;;4738136;29;114798;-80
2022/12/18 06:15:32;;;;;;;19.95;7.80;;;-4.30;67.10;;;;;;4737879;29;114538;-80
2022/12/18 06:18:00;;;;;;;14.48;4.95;;;-4.30;67.20;;;;;;4721994;29;116093;-80
2022/12/18 06:20:31;;;;;;;12.05;5.45;;;-4.30;67.50;;;;;;4721388;29;117258;-80
2022/12/18 06:23:00;;;;;;;21.70;8.10;;;-4.20;67.50;;;;;;4724070;29;114489;-81
2022/12/18 06:25:27;;;;;;;10.95;4.63;;;-4.00;67.40;;;;;;4723453;29;114690;-81
2022/12/18 06:27:54;;;;;;;17.90;7.63;;;-3.90;67.30;;;;;;4722282;29;115163;-81
2022/12/18 06:30:21;;;;;;;9.57;4.05;;;-3.80;67.30;;;;;;4707274;29;114709;-80
2022/12/18 06:32:49;;;;;;;7.88;2.45;;;-3.90;66.80;;;;;;4723214;29;114492;-81
2022/12/18 06:35:22;;;;;;;11.85;5.88;;;-3.90;67.20;;;;;;4723394;29;114530;-80
2022/12/18 06:37:50;;;;;;;25.85;9.05;;;-3.90;67.00;;;;;;4723387;29;115184;-80
2022/12/18 06:40:17;;;;;;;37.67;12.13;;;-4.00;66.70;;;;;;4733809;29;114739;-80
2022/12/18 06:42:44;;;;;;;29.33;8.85;;;-4.00;67.10;;;;;;4735173;29;114477;-80
2022/12/18 06:45:11;;;;;;;26.80;9.25;;;-4.00;66.60;;;;;;4702399;29;115103;-80
2022/12/18 06:47:41;;;;;;;15.23;4.22;;;-4.00;66.60;;;;;;4728708;29;115698;-81
2022/12/18 06:50:09;;;;;;;27.52;7.95;;;-4.10;66.60;;;;;;4715986;29;114990;-80
2022/12/18 06:52:36;;;;;;;27.10;8.95;;;-4.20;66.70;;;;;;4723753;29;114630;-80
2022/12/18 06:55:04;;;;;;;29.02;9.38;;;-4.10;67.00;;;;;;4722872;29;114555;-80
2022/12/18 06:57:32;;;;;;;10.95;3.70;;;-4.10;66.90;;;;;;4736108;29;115315;-80
2022/12/18 06:59:59;;;;;;;19.40;7.38;;;-4.00;66.80;;;;;;4685242;29;117421;-81
2022/12/18 07:02:26;;;;;;;35.80;9.68;;;-4.00;66.80;;;;;;4736766;29;114905;-80
2022/12/18 07:04:54;;;;;;;28.85;10.77;;;-4.00;66.70;;;;;;4717657;29;116673;-80
2022/12/18 07:07:21;;;;;;;46.78;12.73;;;-4.10;66.80;;;;;;4715552;29;115714;-80
2022/12/18 07:09:50;;;;;;;40.78;13.02;;;-4.10;66.40;;;;;;4714016;29;114826;-80
2022/12/18 07:12:17;;;;;;;43.08;15.25;;;-4.20;66.70;;;;;;4714539;29;114989;-80
2022/12/18 07:14:44;;;;;;;42.33;14.25;;;-4.10;66.60;;;;;;4703918;29;115014;-80
2022/12/18 07:17:11;;;;;;;42.78;13.65;;;-4.20;66.60;;;;;;4713005;29;115625;-81
2022/12/18 07:19:39;;;;;;;46.05;15.38;;;-4.20;66.40;;;;;;4713754;29;116293;-80
2022/12/18 07:22:06;;;;;;;28.60;9.50;;;-4.20;66.60;;;;;;4714632;29;114591;-80
2022/12/18 07:24:34;;;;;;;36.83;12.98;;;-4.20;66.50;;;;;;4715408;29;114792;-80
2022/12/18 07:27:02;;;;;;;33.50;9.50;;;-4.20;66.20;;;;;;4713957;29;115424;-80
2022/12/18 07:29:29;;;;;;;31.02;9.85;;;-4.30;66.30;;;;;;4719641;29;114876;-79
2022/12/18 07:31:57;;;;;;;39.92;12.85;;;-4.30;66.70;;;;;;4716649;29;114624;-80
2022/12/18 07:34:24;;;;;;;87.07;31.67;;;-4.30;66.70;;;;;;4728896;29;115055;-79
2022/12/18 07:36:51;;;;;;;41.67;12.57;;;-4.20;66.80;;;;;;4715290;29;115174;-79
2022/12/18 07:39:21;;;;;;;28.42;12.57;;;-4.20;66.40;;;;;;4711229;29;114896;-80
2022/12/18 07:42:30;;;;;;;17.98;9.07;;;-4.30;66.10;;;;;;4715059;29;114480;-80
2022/12/18 07:44:39;;;;;;;21.55;9.82;;;-4.40;66.40;;;;;;4716107;29;114634;-80
2022/12/18 07:47:06;;;;;;;11.15;5.40;;;-4.30;66.70;;;;;;4719593;29;114500;-80
2022/12/18 07:49:38;;;;;;;20.48;7.95;;;-4.30;66.50;;;;;;4716922;29;116871;-80
2022/12/18 07:52:05;;;;;;;35.13;11.80;;;-4.30;66.50;;;;;;4720226;29;114734;-79
2022/12/18 07:54:32;;;;;;;33.55;12.57;;;-4.30;66.50;;;;;;4720022;29;114482;-80
2022/12/18 07:57:00;;;;;;;31.90;10.90;;;-4.40;66.60;;;;;;4720437;29;115334;-80
2022/12/18 07:59:27;;;;;;;34.53;11.30;;;-4.40;66.60;;;;;;4733614;29;115331;-80
2022/12/18 08:01:54;;;;;;;32.90;10.52;;;-4.30;66.70;;;;;;4717395;29;114518;-81
2022/12/18 08:04:22;;;;;;;46.35;13.30;;;-4.30;66.80;;;;;;4720550;29;114450;-80
2022/12/18 08:06:49;;;;;;;42.97;15.68;;;-4.20;66.70;;;;;;4719940;29;115300;-80
2022/12/18 08:09:16;;;;;;;42.38;13.60;;;-4.20;66.60;;;;;;4719849;29;116834;-81
2022/12/18 08:11:43;;;;;;;50.35;15.30;;;-4.20;66.60;;;;;;4734135;29;114843;-80
2022/12/18 08:14:11;;;;;;;47.47;15.32;;;-4.20;66.60;;;;;;4720189;29;114637;-82
2022/12/18 08:16:38;;;;;;;50.15;16.00;;;-4.20;66.50;;;;;;4719058;29;116401;-81
2022/12/18 08:19:05;;;;;;;41.22;14.70;;;-4.20;66.70;;;;;;4720319;29;115177;-80
2022/12/18 08:21:32;;;;;;;36.42;14.13;;;-4.10;66.60;;;;;;4719275;29;114611;-80
2022/12/18 08:24:00;;;;;;;27.83;11.55;;;-4.10;66.60;;;;;;4721430;29;114771;-80
2022/12/18 08:26:30;;;;;;;40.95;14.48;;;-4.10;65.80;;;;;;4719764;29;116987;-80
2022/12/18 08:28:58;;;;;;;46.83;13.65;;;-4.30;65.80;;;;;;4718763;29;115182;-82
2022/12/18 08:31:26;;;;;;;28.13;9.52;;;-4.30;66.30;;;;;;4705306;29;116468;-80
2022/12/18 08:33:53;;;;;;;40.08;13.35;;;-4.30;65.90;;;;;;4720813;29;114619;-80
2022/12/18 08:36:21;;;;;;;35.58;12.60;;;-4.40;66.20;;;;;;4719104;29;115122;-80
2022/12/18 08:38:49;;;;;;;46.85;14.43;;;-4.30;66.60;;;;;;4719260;29;114899;-80
2022/12/18 08:41:17;;;;;;;59.65;16.77;;;-4.20;66.70;;;;;;4721081;29;114579;-81
2022/12/18 08:46:38;;;;;;;30.70;11.75;;;-4.00;65.80;;;;;;4719732;29;119394;-80
2022/12/18 08:49:06;;;;;;;50.05;18.38;;;-4.00;66.20;;;;;;4719048;29;116692;-81
2022/12/18 08:51:34;;;;;;;52.40;16.35;;;-4.00;66.70;;;;;;4731207;29;117221;-82
2022/12/18 08:54:01;;;;;;;44.20;12.48;;;-3.80;66.70;;;;;;4718614;29;114529;-81
2022/12/18 08:56:30;;;;;;;50.60;15.63;;;-3.70;66.30;;;;;;4732541;29;115201;-81
2022/12/18 08:58:57;;;;;;;59.90;19.75;;;-3.60;65.80;;;;;;4720374;29;115052;-81
2022/12/18 09:01:24;;;;;;;59.42;18.73;;;-3.50;65.50;;;;;;4721967;29;114383;-81
2022/12/18 09:03:52;;;;;;;61.53;18.83;;;-3.40;65.50;;;;;;4718514;29;114510;-81
2022/12/18 09:06:20;;;;;;;54.58;17.65;;;-3.40;65.60;;;;;;4721296;29;115133;-81
2022/12/18 09:08:48;;;;;;;55.47;17.25;;;-3.40;65.50;;;;;;4719342;29;114767;-81
2022/12/18 09:11:26;;;;;;;56.95;16.98;;;-3.40;65.40;;;;;;4720333;29;114767;-81
2022/12/18 09:13:54;;;;;;;48.72;15.88;;;-3.40;65.40;;;;;;4705204;29;114574;-82
2022/12/18 09:16:21;;;;;;;54.50;15.35;;;-3.50;65.30;;;;;;4732147;29;115209;-80
2022/12/18 09:18:59;;;;;;;52.65;16.75;;;-3.50;65.60;;;;;;4719982;29;114748;-81
2022/12/18 09:21:28;;;;;;;55.67;17.35;;;-3.50;65.60;;;;;;4721386;29;116892;-81
2022/12/18 09:23:56;;;;;;;49.72;16.17;;;-3.50;65.60;;;;;;4702811;29;114601;-81
2022/12/18 09:26:24;;;;;;;62.20;17.95;;;-3.50;65.30;;;;;;4719386;29;115144;-82
2022/12/18 09:28:51;;;;;;;47.95;17.65;;;-3.60;65.40;;;;;;4733510;29;114736;-81
2022/12/18 09:31:20;;;;;;;48.45;15.65;;;-3.70;65.60;;;;;;4706377;29;114815;-81
2022/12/18 09:33:51;;;;;;;49.08;15.07;;;-3.60;65.60;;;;;;4720570;29;115050;-82
2022/12/18 09:36:21;;;;;;;53.03;16.92;;;-3.70;65.40;;;;;;4720483;29;114567;-81
2022/12/18 09:38:48;;;;;;;58.58;17.10;;;-3.60;65.70;;;;;;4720939;29;114628;-81
2022/12/18 09:41:30;;;;;;;57.60;18.05;;;-3.60;65.50;;;;;;4724320;29;114534;-82
2022/12/18 09:44:01;;;;;;;58.00;19.80;;;-3.50;65.20;;;;;;4725471;29;114411;-82
2022/12/18 09:46:39;;;;;;;50.08;17.10;;;-3.60;65.20;;;;;;4737356;29;115201;-81
2022/12/18 09:49:12;;;;;;;54.83;17.85;;;-3.50;65.20;;;;;;4703238;29;117548;-82
2022/12/18 09:51:47;;;;;;;65.57;21.20;;;-3.50;65.30;;;;;;4735209;29;114547;-81
2022/12/18 09:54:30;;;;;;;28.38;10.25;;;-3.50;65.30;;;;;;4721272;29;114640;-82
2022/12/18 09:56:57;;;;;;;56.53;18.33;;;-3.50;64.80;;;;;;4724616;29;115396;-82
2022/12/18 09:59:35;;;;;;;57.88;19.02;;;-3.70;64.30;;;;;;4723804;29;114376;-82
2022/12/18 10:02:24;;;;;;;51.83;18.65;;;-3.80;64.70;;;;;;4723468;29;114477;-83
2022/12/18 10:05:23;;;;;;;62.78;18.08;;;-3.80;64.50;;;;;;4721330;29;114678;-83
2022/12/18 10:07:59;;;;;;;55.03;16.38;;;-3.80;64.80;;;;;;4704276;29;116330;-82
2022/12/18 10:10:49;;;;;;;59.78;18.35;;;-3.90;64.60;;;;;;4736590;29;114747;-82
2022/12/18 10:13:55;;;;;;;45.90;14.75;;;-4.00;64.60;;;;;;4724289;29;114659;-81
2022/12/18 10:17:00;;;;;;;29.85;10.60;;;-4.10;64.80;;;;;;4721970;29;114539;-81
2022/12/18 10:20:09;;;;;;;55.22;18.88;;;-4.10;64.30;;;;;;4723124;29;115185;-81
2022/12/18 10:23:01;;;;;;;42.42;16.38;;;-4.30;64.40;;;;;;4730251;29;114691;-81
2022/12/18 10:26:03;;;;;;;48.97;17.15;;;-4.30;64.70;;;;;;4738305;29;114405;-81
2022/12/18 10:28:31;;;;;;;39.28;14.38;;;-4.20;64.50;;;;;;4724753;29;117629;-81
2022/12/18 10:30:59;;;;;;;46.70;17.67;;;-4.20;64.60;;;;;;4705265;29;116371;-81
2022/12/18 10:33:35;;;;;;;49.80;18.05;;;-4.10;64.90;;;;;;4720854;29;114689;-81
2022/12/18 10:36:07;;;;;;;57.55;18.85;;;-3.90;64.90;;;;;;4719974;29;114494;-83
2022/12/18 10:38:34;;;;;;;41.55;13.70;;;-3.80;65.00;;;;;;4724304;29;114361;-81
2022/12/18 10:41:30;;;;;;;53.85;19.73;;;-3.50;65.10;;;;;;4733813;29;115180;-81
2022/12/18 10:44:44;;;;;;;60.08;17.55;;;-3.30;64.70;;;;;;4722373;29;115354;-81
2022/12/18 10:47:20;;;;;;;52.33;18.33;;;-3.20;64.10;;;;;;4724099;29;114494;-81
2022/12/18 10:49:55;;;;;;;55.72;19.38;;;-3.10;63.70;;;;;;4734546;29;115073;-81
2022/12/18 10:52:24;;;;;;;61.33;19.10;;;-3.10;63.90;;;;;;4721715;29;115148;-81
2022/12/18 10:55:01;;;;;;;51.35;18.27;;;-3.00;63.90;;;;;;4704310;29;115133;-82
2022/12/18 10:57:34;;;;;;;58.90;19.67;;;-2.90;63.50;;;;;;4706890;29;114489;-81
2022/12/18 11:03:50;;;;;;;61.03;20.10;;;-2.80;63.70;;;;;;4718934;29;115435;-81
2022/12/18 11:06:24;;;;;;;56.03;18.52;;;-2.80;63.90;;;;;;4708259;29;114654;-82
2022/12/18 11:09:19;;;;;;;52.05;20.42;;;-2.80;63.30;;;;;;4693877;29;114403;-82
2022/12/18 11:11:55;;;;;;;68.32;19.52;;;-2.80;63.00;;;;;;4706278;29;114604;-81
2022/12/18 11:14:42;;;;;;;57.58;19.38;;;-2.80;63.30;;;;;;4691850;29;115658;-81
2022/12/18 11:17:31;;;;;;;58.60;19.80;;;-2.80;63.50;;;;;;4721038;29;115117;-81
2022/12/18 11:20:19;;;;;;;61.28;20.55;;;-2.70;63.50;;;;;;4692088;29;114602;-81
2022/12/18 11:22:58;;;;;;;58.80;20.15;;;-2.70;63.30;;;;;;4694319;29;115148;-81
2022/12/18 11:25:28;;;;;;;52.92;19.80;;;-2.70;62.90;;;;;;4720409;29;115078;-81
2022/12/18 11:28:29;;;;;;;58.67;19.65;;;-2.80;63.00;;;;;;4692145;29;115384;-81
2022/12/18 11:31:26;;;;;;;62.20;20.65;;;-2.80;62.90;;;;;;4706385;29;114483;-82
2022/12/18 11:34:30;;;;;;;58.63;20.17;;;-2.90;62.90;;;;;;4714416;29;114682;-82
2022/12/18 11:36:59;;;;;;;52.73;14.87;;;-2.80;63.00;;;;;;4736949;29;115222;-81
2022/12/18 11:39:36;;;;;;;55.30;18.67;;;-3.00;63.00;;;;;;4706781;29;114906;-81
2022/12/18 11:42:16;;;;;;;60.20;20.95;;;-2.90;63.40;;;;;;4722443;29;114523;-81
2022/12/18 11:44:50;;;;;;;54.85;18.95;;;-2.90;63.20;;;;;;4723652;29;114424;-81
2022/12/18 11:48:00;;;;;;;57.45;19.65;;;-2.90;63.40;;;;;;4717869;29;115223;-81
2022/12/18 11:50:51;;;;;;;59.92;20.88;;;-2.80;63.40;;;;;;4700995;29;114683;-80
2022/12/18 11:53:18;;;;;;;60.58;21.48;;;-2.80;63.50;;;;;;4721484;29;114395;-82
2022/12/18 11:56:06;;;;;;;67.45;23.65;;;-2.70;63.60;;;;;;4721863;29;114672;-80
2022/12/18 11:59:06;;;;;;;60.25;20.42;;;-2.60;63.30;;;;;;4722134;29;115532;-81
2022/12/18 12:02:01;;;;;;;52.00;20.73;;;-2.50;63.30;;;;;;4719777;29;114934;-81
2022/12/18 12:04:45;;;;;;;64.00;22.88;;;-2.40;63.00;;;;;;4721408;29;114385;-81
2022/12/18 12:07:46;;;;;;;47.60;16.93;;;-2.30;62.60;;;;;;4736454;29;114789;-81
2022/12/18 12:10:51;;;;;;;54.58;18.90;;;-2.30;62.70;;;;;;4730948;29;115356;-81
2022/12/18 12:13:36;;;;;;;47.27;15.80;;;-2.20;62.80;;;;;;4722382;29;115128;-81
2022/12/18 12:16:21;;;;;;;60.20;20.27;;;-2.20;63.10;;;;;;4722373;29;114590;-80
2022/12/18 12:18:52;;;;;;;60.88;23.02;;;-2.10;63.00;;;;;;4720958;29;117279;-81
2022/12/18 12:21:39;;;;;;;64.35;23.58;;;-2.00;62.90;;;;;;4720771;29;115492;-80
2022/12/18 12:24:15;;;;;;;62.45;22.02;;;-1.90;62.40;;;;;;4730357;29;114751;-81
2022/12/18 12:27:17;;;;;;;56.83;20.55;;;-1.90;62.40;;;;;;4722492;29;114600;-81
2022/12/18 12:30:08;;;;;;;61.65;23.90;;;-1.90;62.50;;;;;;4720263;29;114541;-80
2022/12/18 12:32:45;;;;;;;68.15;25.00;;;-2.00;62.20;;;;;;4720333;29;115214;-80
2022/12/18 12:35:37;;;;;;;69.03;25.30;;;-2.10;62.10;;;;;;4721490;29;114777;-81
2022/12/18 12:38:46;;;;;;;68.90;24.05;;;-2.20;62.20;;;;;;4721057;29;114618;-81
2022/12/18 12:44:28;;;;;;;66.20;23.50;;;-2.40;62.00;;;;;;4716557;29;115185;-81
2022/12/18 12:46:58;;;;;;;76.03;22.98;;;-2.50;62.10;;;;;;4719011;29;114837;-81
2022/12/18 12:49:28;;;;;;;69.05;24.35;;;-2.60;62.40;;;;;;4703115;29;114688;-81
2022/12/18 12:52:37;;;;;;;76.97;26.05;;;-2.60;62.50;;;;;;4731947;29;114368;-82
2022/12/18 12:55:13;;;;;;;66.88;24.08;;;-2.50;62.10;;;;;;4731506;29;115197;-82
2022/12/18 12:58:09;;;;;;;68.32;25.67;;;-2.40;62.40;;;;;;4717224;29;116755;-82
2022/12/18 13:01:08;;;;;;;76.95;25.08;;;-2.40;62.40;;;;;;4732013;29;114509;-82
2022/12/18 13:04:14;;;;;;;72.85;25.27;;;-2.30;62.20;;;;;;4702803;29;115001;-82
2022/12/18 13:07:04;;;;;;;72.63;24.67;;;-2.30;62.10;;;;;;4727939;29;115730;-81
2022/12/18 13:09:35;;;;;;;58.50;18.67;;;-2.20;62.10;;;;;;4732715;29;114642;-81